This is the latest recevied weather packets stored in our database for station/object LX1CU-13. If no packets are shown the sender has not sent any weather packets the latest 10 day(s).
| Time | Temp. | Humidity | Pressure | Rain* | Wind** | Luminosity | Snow |
|---|---|---|---|---|---|---|---|
| 1777966713 | 21.67° C | 73% | 1005.6 hPa | 0 mm | - | - | - |
| 1777966413 | 18.89° C | 82% | 1005.6 hPa | 0 mm | - | - | - |
| 1777966113 | 17.78° C | 86% | 1005.7 hPa | 0 mm | - | - | - |
| 1777965813 | 16.67° C | 87% | 1005.8 hPa | 0 mm | - | - | - |
| 1777965513 | 16.11° C | 87% | 1005.8 hPa | 0 mm | - | - | - |
| 1777965213 | 15.56° C | 88% | 1005.8 hPa | 0 mm | - | - | - |
| 1777964913 | 15.56° C | 89% | 1005.8 hPa | 0 mm | - | - | - |
| 1777964613 | 14.44° C | 91% | 1005.9 hPa | 0 mm | - | - | - |
| 1777964313 | 14.44° C | 91% | 1005.9 hPa | 0 mm | - | - | - |
| 1777964013 | 13.89° C | 91% | 1005.9 hPa | 0 mm | - | - | - |
| 1777963713 | 13.33° C | 91% | 1005.9 hPa | 0 mm | - | - | - |
| 1777963413 | 12.78° C | 92% | 1005.9 hPa | 0 mm | - | - | - |
| 1777963113 | 12.78° C | 92% | 1005.9 hPa | 0 mm | - | - | - |
| 1777962813 | 12.78° C | 92% | 1005.9 hPa | 0 mm | - | - | - |
| 1777962513 | 12.78° C | 91% | 1006 hPa | 0 mm | - | - | - |
| 1777962213 | 12.78° C | 92% | 1005.9 hPa | 0 mm | - | - | - |
| 1777961913 | 12.78° C | 92% | 1006 hPa | 0 mm | - | - | - |
| 1777961613 | 12.78° C | 92% | 1006 hPa | 0 mm | - | - | - |
| 1777961313 | 12.78° C | 92% | 1006 hPa | 0 mm | - | - | - |
| 1777961013 | 12.78° C | 92% | 1006.1 hPa | 0 mm | - | - | - |
| 1777960713 | 12.78° C | 92% | 1006 hPa | 0 mm | - | - | - |
| 1777960413 | 12.78° C | 92% | 1006 hPa | 0 mm | - | - | - |
| 1777960113 | 12.22° C | 92% | 1006 hPa | 0 mm | - | - | - |
| 1777959813 | 12.22° C | 92% | 1006 hPa | 0 mm | - | - | - |
| 1777959513 | 11.67° C | 92% | 1005.9 hPa | 0 mm | - | - | - |
* Rain latest hour (hover to see other rain measurements)
** Current wind speed in m/s (hover to see current wind gust speed)